Skip Navigation Links
NOAA logo - Click to go to the NOAA homepage
NOAA's National Weather Service
Alaska Aviation Weather Unit
  NWS logo - Click to go to the NWS homepage
Left Navbar Graphic     09 AKDT = 17 GMT

   
NOAA is celebrating 200 years of science, service, and stewardship. Visit the NOAA 200th celebration Web site to learn more.
USA.gov is the U.S. Government's official Web portal to all Federal, state and local government Web resources and services.
Facebook
NWS on Facebook

Important Change Regarding the AAWU Web Presence

 

Over the last several months, the AAWU has been working to navigate its webpages to a nationally supported server. Security, as well as other needs, have necessitated the change.  In the process, we have made an effort to enhance the functionality of our website, as well as some of our products. As of June 20, 2017, aawu.arh.noaa.gov will be discontinued. The new AAWU web address is weather.gov/aawu. It is now live and will run in-parallel with the old site until it is discontinued. Please send any feedback or questions regarding the new webpages to nws.ar.aawu.webauthors@noaa.gov.  Thank you for your patience during this time of transition.
AAWU Home :: Display TAF Add Bookmark
SPECI PAJZ 271103Z AUTO 09006KT 9SM SCT028 OVC040 03/02 A3001 RMK AO2
     RAE1058 P0000 $=

METAR PAJZ 271156Z AUTO 12006KT 9SM UP BKN027 BKN033 OVC042 03/02 A3001
     RMK AO2 RAE32UPB32 SLP170 P0000 60001 70005 T00280017 10039
     20028 53000 $=

SPECI PAJZ 271223Z AUTO 10007KT 9SM SCT027 BKN040 OVC060 02/02 A3001 RMK
     AO2 UPE12 P0000 FZRANO $=

METAR PAJZ 271256Z AUTO 10006KT 8SM FEW027 BKN037 OVC048 02/02 A3001 RMK
     AO2 UPE12 SLP169 P0000 T00220017 FZRANO $=

SPECI PAJZ 271318Z AUTO 09007KT 6SM -RA BR BKN029 OVC041 02/02 A3001 RMK
     AO2 RAB14 P0000 FZRANO $=

SPECI PAJZ 271354Z AUTO 10007KT 8SM -RA SCT029 BKN046 OVC055 02/02
 A3001 RMK AO2 RAB14UPB28E42 P0000 FZRANO $=

METAR PAJZ 271356Z AUTO 10007KT 8SM -RA FEW029 OVC048 03/02 A3001 RMK
     AO2 RAB14UPB28E42 SLP169 P0000 T00280017 $=

METAR PAJZ 271456Z AUTO 11007KT 7SM OVC050 02/01 A3001 RMK AO2
 RAE1359UPB1359E21 SLP170 P0000 60000 T00220011 55000 FZRANO $=

METAR PAJZ 271556Z AUTO 12008KT 7SM BKN110 03/02 A3001 RMK AO2 SLP170
     T00330022 $=

METAR PAJZ 271656Z AUTO 12010KT 7SM FEW011 OVC050 05/03 A3001 RMK AO2
     SLP169 T00500033 $=


NOAA's National Weather Service
Alaska Aviation Weather Unit
6930 Sand Lake Road
Anchorage, AK 99502-1845
Disclaimer
Credits
Glossary
Privacy Policy
About Us
Career Opportunities
Contact AAWU Internet Services Site last modified: April, 17th 2012